createdAt,value
2023-04-17T00:00:37.815Z,63.30
2023-04-17T00:10:39.924Z,62.55
2023-04-17T00:20:41.982Z,62.16
2023-04-17T00:30:44.137Z,61.87
2023-04-17T00:40:46.472Z,61.08
2023-04-17T00:50:50.153Z,60.80
2023-04-17T01:00:52.314Z,61.74
2023-04-17T01:10:54.611Z,62.41
2023-04-17T01:20:56.840Z,60.50
2023-04-17T01:30:59.113Z,61.85
2023-04-17T01:41:09.530Z,60.83
2023-04-17T01:51:11.764Z,63.07
2023-04-17T02:01:14.158Z,61.90
2023-04-17T02:11:16.353Z,61.22
2023-04-17T02:21:18.698Z,61.77
2023-04-17T02:31:20.839Z,60.67
2023-04-17T02:41:22.988Z,60.63
2023-04-17T02:51:26.532Z,60.91
2023-04-17T03:01:29.850Z,62.64
2023-04-17T03:11:32.114Z,60.19
2023-04-17T03:21:34.369Z,60.80
2023-04-17T03:31:37.506Z,59.86
2023-04-17T03:41:40.018Z,59.86
2023-04-17T03:51:43.094Z,60.82
2023-04-17T04:01:54.100Z,60.14
2023-04-17T04:11:58.429Z,60.20
2023-04-17T04:22:01.523Z,60.93
2023-04-17T04:32:13.530Z,60.50
2023-04-17T04:42:22.392Z,58.87
2023-04-17T04:52:39.868Z,59.82
2023-04-17T05:02:51.442Z,59.96
2023-04-17T05:12:58.901Z,60.15
2023-04-17T05:23:01.916Z,60.28
2023-04-17T05:33:04.305Z,59.33
2023-04-17T05:43:17.433Z,58.58
2023-04-17T05:53:20.665Z,59.27
2023-04-17T06:03:30.636Z,59.33
2023-04-17T06:13:42.950Z,58.12
2023-04-17T06:23:45.479Z,58.60
2023-04-17T06:33:49.854Z,60.62
2023-04-17T06:43:53.928Z,59.48
2023-04-17T06:53:56.065Z,58.47
2023-04-17T07:03:58.255Z,60.12
2023-04-17T07:14:00.399Z,59.96
2023-04-17T07:24:02.514Z,59.73
2023-04-17T07:34:05.159Z,56.15
2023-04-17T07:44:07.209Z,56.45
2023-04-17T07:54:09.374Z,55.60
2023-04-17T08:04:11.665Z,53.80
2023-04-17T08:14:15.460Z,55.82
2023-04-17T08:24:19.754Z,55.36
2023-04-17T08:34:22.268Z,52.37
2023-04-17T08:44:24.318Z,51.43
2023-04-17T08:54:27.514Z,49.33
2023-04-17T09:04:37.112Z,47.64
2023-04-17T09:14:39.490Z,45.39
2023-04-17T09:24:42.925Z,42.92
2023-04-17T09:34:45.081Z,42.54
2023-04-17T09:44:48.466Z,43.70
2023-04-17T09:54:53.620Z,43.29
2023-04-17T10:04:55.838Z,44.96
2023-04-17T10:14:57.929Z,44.89
2023-04-17T10:25:15.631Z,43.60
2023-04-17T10:35:17.833Z,43.51
2023-04-17T10:45:20.102Z,40.72
2023-04-17T10:55:23.866Z,39.15
2023-04-17T11:05:26.030Z,38.76
2023-04-17T11:15:29.242Z,38.07
2023-04-17T11:25:33.968Z,40.19
2023-04-17T11:35:38.951Z,37.44
2023-04-17T11:45:43.080Z,36.94
2023-04-17T11:55:45.779Z,34.98
2023-04-17T12:05:58.912Z,34.74
2023-04-17T12:16:01.111Z,35.71
2023-04-17T12:26:03.260Z,34.91
2023-04-17T12:36:06.445Z,32.51
2023-04-17T12:46:08.581Z,32.55
2023-04-17T12:56:10.799Z,31.96
2023-04-17T13:06:13.580Z,32.64
2023-04-17T13:16:15.725Z,30.92
2023-04-17T13:26:18.145Z,31.30
2023-04-17T13:36:20.196Z,29.77
2023-04-17T13:46:22.311Z,30.75
2023-04-17T13:56:25.332Z,32.10
2023-04-17T14:06:31.952Z,30.06
2023-04-17T14:16:34.128Z,30.39
2023-04-17T14:26:37.519Z,31.54
2023-04-17T14:36:39.696Z,29.33
2023-04-17T14:46:41.929Z,30.53
2023-04-17T14:56:44.175Z,31.21
2023-04-17T15:06:46.377Z,29.96
2023-04-17T15:16:48.540Z,30.08
2023-04-17T15:26:51.245Z,28.44
2023-04-17T15:36:53.770Z,29.66
2023-04-17T15:46:56.077Z,28.59
2023-04-17T15:56:58.226Z,28.50
2023-04-17T16:07:00.358Z,28.76
2023-04-17T16:17:03.143Z,28.95
2023-04-17T16:27:06.386Z,27.46
2023-04-17T16:37:08.512Z,28.32
2023-04-17T16:47:13.928Z,27.70
2023-04-17T16:57:16.531Z,28.88
2023-04-17T17:07:18.733Z,30.65
2023-04-17T17:17:20.846Z,29.74
2023-04-17T17:27:24.007Z,30.42
2023-04-17T17:37:26.868Z,31.74
2023-04-17T17:47:29.090Z,32.67
2023-04-17T17:57:45.670Z,32.16
2023-04-17T18:07:50.559Z,32.26
2023-04-17T18:17:52.786Z,32.45
2023-04-17T18:27:54.943Z,34.05
2023-04-17T18:37:56.979Z,33.15
2023-04-17T18:47:59.162Z,34.84
2023-04-17T18:58:01.241Z,33.67
2023-04-17T19:08:03.476Z,35.93
2023-04-17T19:18:07.644Z,34.05
2023-04-17T19:28:10.859Z,36.17
2023-04-17T19:38:14.369Z,38.23
2023-04-17T19:48:18.431Z,35.37
2023-04-17T19:58:20.582Z,36.90
2023-04-17T20:08:22.808Z,37.61
2023-04-17T20:18:25.635Z,37.28
2023-04-17T20:28:29.002Z,38.23
2023-04-17T20:38:31.106Z,39.94
2023-04-17T20:48:33.243Z,39.03
2023-04-17T20:58:36.346Z,38.11
2023-04-17T21:08:38.522Z,35.47
2023-04-17T21:18:40.660Z,35.63
2023-04-17T21:28:43.011Z,38.90
2023-04-17T21:38:45.644Z,37.29
2023-04-17T21:48:47.721Z,37.78
2023-04-17T21:58:51.629Z,36.53
2023-04-17T22:08:53.736Z,35.54
2023-04-17T22:18:55.955Z,37.23
2023-04-17T22:28:58.110Z,36.38
2023-04-17T22:39:01.278Z,37.16
2023-04-17T22:49:05.997Z,36.66
2023-04-17T22:59:08.091Z,35.12
2023-04-17T23:09:10.282Z,36.17
2023-04-17T23:19:12.413Z,37.50
2023-04-17T23:29:14.534Z,38.56
2023-04-17T23:39:16.629Z,40.11
2023-04-17T23:49:18.700Z,40.02
2023-04-17T23:59:20.893Z,44.48
